Time;durP1;ratioP1;P1;durP2;ratioP2;P2;SDS_P1;SDS_P2;PMS_P1;PMS_P2;Temp;Humidity;BMP_temperature;BMP_pressure;BME280_temperature;BME280_humidity;BME280_pressure;Samples;Min_cycle;Max_cycle;Signal;HPM_P1;HPM_P2
2021/09/05 00:00:55;;;;;;;18.07;14.20;;;14.20;1.00;;;;;;6304780;22;20391;-83
2021/09/05 00:03:22;;;;;;;18.80;14.60;;;14.20;1.00;;;;;;6323458;22;20410;-80
2021/09/05 00:05:49;;;;;;;17.47;15.63;;;14.20;1.00;;;;;;6322763;22;21035;-83
2021/09/05 00:08:16;;;;;;;16.50;13.90;;;14.20;1.00;;;;;;6305418;22;20423;-83
2021/09/05 00:10:42;;;;;;;19.70;16.33;;;14.20;1.00;;;;;;6307589;22;20935;-83
2021/09/05 00:13:10;;;;;;;21.50;15.37;;;14.10;1.00;;;;;;6309131;22;20433;-82
2021/09/05 00:15:39;;;;;;;17.13;14.10;;;14.10;1.00;;;;;;6329746;22;20375;-80
2021/09/05 00:18:06;;;;;;;16.90;14.90;;;14.00;1.00;;;;;;6296969;22;20402;-82
2021/09/05 00:20:33;;;;;;;19.77;14.47;;;14.00;1.00;;;;;;6309710;22;20437;-84
2021/09/05 00:23:01;;;;;;;18.10;14.87;;;13.90;1.00;;;;;;6302734;22;20707;-83
2021/09/05 00:25:30;;;;;;;17.20;14.37;;;13.90;1.00;;;;;;6301105;22;20420;-83
2021/09/05 00:27:57;;;;;;;20.47;16.50;;;13.80;1.00;;;;;;6305882;22;20903;-82
2021/09/05 00:30:25;;;;;;;21.90;16.67;;;13.80;1.00;;;;;;6301579;22;20406;-83
2021/09/05 00:32:52;;;;;;;17.70;15.30;;;13.80;1.00;;;;;;6304994;22;20422;-83
2021/09/05 00:35:18;;;;;;;20.73;15.67;;;13.80;1.00;;;;;;6298909;22;20957;-81
2021/09/05 00:37:45;;;;;;;19.37;16.07;;;13.70;1.00;;;;;;6299131;22;20409;-81
2021/09/05 00:40:13;;;;;;;19.93;15.57;;;13.70;1.00;;;;;;6300496;22;20391;-82
2021/09/05 00:42:40;;;;;;;16.67;14.33;;;13.70;1.00;;;;;;6299060;22;20426;-81
2021/09/05 00:45:08;;;;;;;23.83;16.60;;;13.70;1.00;;;;;;6301025;22;20401;-83
2021/09/05 00:47:36;;;;;;;20.60;15.43;;;13.60;1.00;;;;;;6301594;22;20430;-81
2021/09/05 00:50:03;;;;;;;17.53;15.43;;;13.60;1.00;;;;;;6274563;22;20418;-82
2021/09/05 00:52:30;;;;;;;22.03;17.13;;;13.60;1.00;;;;;;6302736;22;20395;-81
2021/09/05 00:54:57;;;;;;;21.30;15.60;;;13.60;1.00;;;;;;6300748;22;20386;-81
2021/09/05 00:57:24;;;;;;;18.60;14.90;;;13.60;1.00;;;;;;6307960;22;20418;-81
2021/09/05 00:59:51;;;;;;;17.93;16.00;;;13.50;1.00;;;;;;6331869;22;20631;-81
2021/09/05 01:02:18;;;;;;;21.80;17.37;;;13.50;1.00;;;;;;6328299;22;20421;-81
2021/09/05 01:04:46;;;;;;;19.43;16.13;;;13.50;1.00;;;;;;6304019;22;20466;-81
2021/09/05 01:07:13;;;;;;;21.50;17.00;;;13.40;1.00;;;;;;6301233;22;20476;-82
2021/09/05 01:09:41;;;;;;;23.10;16.27;;;13.40;1.00;;;;;;6273606;22;20429;-81
2021/09/05 01:12:08;;;;;;;21.77;16.57;;;13.40;1.00;;;;;;6274087;22;20929;-83
2021/09/05 01:14:35;;;;;;;19.63;16.77;;;13.40;1.00;;;;;;6300562;22;20413;-81
2021/09/05 01:17:02;;;;;;;24.30;18.70;;;13.30;1.00;;;;;;6301783;22;20473;-82
2021/09/05 01:19:29;;;;;;;19.17;17.07;;;13.30;1.00;;;;;;6302080;22;20410;-83
2021/09/05 01:21:58;;;;;;;20.00;16.80;;;13.30;1.00;;;;;;6302666;22;20472;-81
2021/09/05 01:24:25;;;;;;;20.40;17.53;;;13.30;1.00;;;;;;6299891;22;20399;-80
2021/09/05 01:26:53;;;;;;;21.33;17.77;;;13.20;1.00;;;;;;6302787;22;20804;-81
2021/09/05 01:29:21;;;;;;;22.00;17.20;;;13.20;1.00;;;;;;6317710;22;20391;-81
2021/09/05 01:31:49;;;;;;;22.77;18.33;;;13.20;1.00;;;;;;6330281;22;20378;-78
2021/09/05 01:34:20;;;;;;;21.97;18.27;;;13.10;1.00;;;;;;6313002;22;20402;-81
2021/09/05 01:36:48;;;;;;;20.90;17.00;;;13.10;1.00;;;;;;6281504;22;20477;-80
2021/09/05 01:39:16;;;;;;;20.33;17.67;;;13.10;1.00;;;;;;6307280;22;20450;-80
2021/09/05 01:41:44;;;;;;;22.43;18.40;;;13.10;1.00;;;;;;6306908;22;20460;-81
2021/09/05 01:44:13;;;;;;;23.77;17.80;;;13.10;1.00;;;;;;6279397;22;20447;-81
2021/09/05 01:46:41;;;;;;;25.30;16.97;;;13.10;1.00;;;;;;6307318;22;20481;-81
2021/09/05 01:49:08;;;;;;;21.83;17.40;;;13.10;1.00;;;;;;6310633;22;20410;-83
2021/09/05 01:51:36;;;;;;;21.43;18.17;;;13.10;1.00;;;;;;6307539;22;20871;-79
2021/09/05 01:54:03;;;;;;;20.77;17.37;;;13.00;1.00;;;;;;6306589;22;20402;-80
2021/09/05 01:56:31;;;;;;;22.03;18.80;;;13.00;1.00;;;;;;6306982;22;20618;-80
2021/09/05 01:58:58;;;;;;;22.80;17.70;;;12.90;1.00;;;;;;6306167;22;20476;-81
2021/09/05 02:01:26;;;;;;;23.50;18.33;;;12.90;1.00;;;;;;6279550;22;20433;-81
2021/09/05 02:03:54;;;;;;;22.53;18.67;;;12.90;1.00;;;;;;6307626;22;20796;-82
2021/09/05 02:06:20;;;;;;;19.83;17.73;;;12.90;1.00;;;;;;6306876;22;20521;-82
2021/09/05 02:08:47;;;;;;;22.20;17.87;;;12.90;1.00;;;;;;6305890;22;20494;-82
2021/09/05 02:11:15;;;;;;;23.37;19.17;;;12.90;1.00;;;;;;6304771;22;20374;-81
2021/09/05 02:13:42;;;;;;;24.07;18.47;;;12.90;1.00;;;;;;6306375;22;20414;-81
2021/09/05 02:16:09;;;;;;;22.90;18.50;;;12.90;1.00;;;;;;6305258;22;20407;-80
2021/09/05 02:18:38;;;;;;;21.50;17.60;;;13.00;1.00;;;;;;6305850;22;20406;-76
2021/09/05 02:21:06;;;;;;;21.63;19.33;;;13.00;1.00;;;;;;6305028;22;20444;-79
2021/09/05 02:23:33;;;;;;;25.80;19.27;;;13.00;1.00;;;;;;6308706;22;21451;-79
2021/09/05 02:25:59;;;;;;;23.27;20.60;;;13.00;1.00;;;;;;6311034;22;20422;-78
2021/09/05 02:28:26;;;;;;;25.93;19.40;;;13.00;1.00;;;;;;6334064;22;20390;-78
2021/09/05 02:30:53;;;;;;;26.90;21.23;;;13.00;1.00;;;;;;6302276;22;20383;-82
2021/09/05 02:33:20;;;;;;;26.90;20.03;;;13.00;1.00;;;;;;6306759;22;20387;-81
2021/09/05 02:35:46;;;;;;;30.40;22.13;;;13.00;1.00;;;;;;6308187;22;20415;-81
2021/09/05 02:38:14;;;;;;;23.60;19.80;;;13.00;1.00;;;;;;6309239;22;20394;-82
2021/09/05 02:40:43;;;;;;;29.43;21.70;;;13.00;1.00;;;;;;6308749;22;21273;-81
2021/09/05 02:43:10;;;;;;;30.63;23.60;;;13.00;1.00;;;;;;6308897;22;21408;-81
2021/09/05 02:45:36;;;;;;;27.80;22.97;;;12.90;1.00;;;;;;6281332;22;20599;-82
2021/09/05 02:48:04;;;;;;;30.10;23.10;;;12.90;1.00;;;;;;6317740;22;20446;-81
2021/09/05 02:50:31;;;;;;;28.97;24.60;;;12.80;1.00;;;;;;6320755;22;20383;-82
2021/09/05 02:52:58;;;;;;;30.57;23.23;;;12.80;1.00;;;;;;6340000;22;20369;-82
2021/09/05 02:55:26;;;;;;;29.03;23.80;;;12.80;1.00;;;;;;6340457;22;20367;-82
2021/09/05 02:57:53;;;;;;;29.53;23.47;;;12.80;1.00;;;;;;6340249;22;20359;-81
2021/09/05 03:00:20;;;;;;;28.53;23.97;;;12.80;1.00;;;;;;6339800;22;20366;-81
2021/09/05 03:02:47;;;;;;;32.70;22.90;;;12.80;1.00;;;;;;6340263;22;20458;-82
2021/09/05 03:05:14;;;;;;;29.30;23.97;;;12.80;1.00;;;;;;6340264;22;20343;-81
2021/09/05 03:07:40;;;;;;;26.60;23.07;;;12.80;1.00;;;;;;6339303;22;20362;-82
2021/09/05 03:10:08;;;;;;;26.13;22.43;;;12.80;1.00;;;;;;6339862;22;20430;-82
2021/09/05 03:12:36;;;;;;;27.93;21.97;;;12.80;1.00;;;;;;6339161;22;20362;-80
2021/09/05 03:15:02;;;;;;;26.87;22.13;;;12.80;1.00;;;;;;6339346;22;20394;-81
2021/09/05 03:17:30;;;;;;;24.77;21.40;;;12.70;1.00;;;;;;6339363;22;20359;-81
2021/09/05 03:19:56;;;;;;;26.80;21.93;;;12.70;1.00;;;;;;6338856;22;20354;-82
2021/09/05 03:22:24;;;;;;;27.87;22.47;;;12.70;1.00;;;;;;6310768;22;20382;-82
2021/09/05 03:24:51;;;;;;;27.93;21.80;;;12.70;1.00;;;;;;6337798;22;20346;-81
2021/09/05 03:27:17;;;;;;;27.63;22.33;;;12.70;1.00;;;;;;6338126;22;20398;-82
2021/09/05 03:29:45;;;;;;;25.73;21.40;;;12.70;1.00;;;;;;6337795;22;20389;-82
2021/09/05 03:32:12;;;;;;;31.23;23.47;;;12.70;1.00;;;;;;6337439;22;20378;-81
2021/09/05 03:34:38;;;;;;;27.87;20.73;;;12.70;1.00;;;;;;6335179;22;20343;-81
2021/09/05 03:37:05;;;;;;;26.03;21.70;;;12.70;1.00;;;;;;6327410;22;21639;-81
2021/09/05 03:39:32;;;;;;;28.50;23.40;;;12.60;1.00;;;;;;6316193;22;20413;-81
2021/09/05 03:41:59;;;;;;;25.70;21.27;;;12.60;1.00;;;;;;6306065;22;20461;-81
2021/09/05 03:44:25;;;;;;;31.70;21.03;;;12.60;1.00;;;;;;6302493;22;20422;-81
2021/09/05 03:46:56;;;;;;;26.73;21.60;;;12.60;1.00;;;;;;6302665;22;20437;-80
2021/09/05 03:49:23;;;;;;;27.30;22.47;;;12.50;1.00;;;;;;6303974;22;21193;-81
2021/09/05 03:51:50;;;;;;;28.63;22.23;;;12.40;1.00;;;;;;6301843;22;20462;-80
2021/09/05 03:54:17;;;;;;;23.73;20.10;;;12.40;1.00;;;;;;6302931;22;20402;-80
2021/09/05 03:56:43;;;;;;;26.10;21.50;;;12.40;1.00;;;;;;6301360;22;20422;-81
2021/09/05 03:59:10;;;;;;;28.33;21.93;;;12.40;1.00;;;;;;6301247;22;20405;-81
2021/09/05 04:01:37;;;;;;;30.03;22.97;;;12.50;1.00;;;;;;6300955;22;20446;-82
2021/09/05 04:04:05;;;;;;;26.93;19.70;;;12.40;1.00;;;;;;6302520;22;20370;-81
2021/09/05 04:06:32;;;;;;;24.10;20.30;;;12.40;1.00;;;;;;6302575;22;20482;-80
2021/09/05 04:09:08;;;;;;;23.33;20.70;;;12.40;1.00;;;;;;6302259;22;20417;-81
2021/09/05 04:11:34;;;;;;;21.30;19.00;;;12.40;1.00;;;;;;6302406;22;20425;-81
2021/09/05 04:14:01;;;;;;;26.20;19.37;;;12.40;1.00;;;;;;6302691;22;20415;-81
2021/09/05 04:16:28;;;;;;;24.37;19.67;;;12.40;1.00;;;;;;6303301;22;20403;-80
2021/09/05 04:18:55;;;;;;;24.00;19.73;;;12.30;1.00;;;;;;6312712;22;20422;-80
2021/09/05 04:21:23;;;;;;;25.23;20.17;;;12.30;1.00;;;;;;6315154;22;20390;-81
2021/09/05 04:23:49;;;;;;;27.33;20.23;;;12.30;1.00;;;;;;6320042;22;20440;-82
2021/09/05 04:26:16;;;;;;;22.40;18.80;;;12.30;1.00;;;;;;6332568;22;20397;-80
2021/09/05 04:28:43;;;;;;;24.40;19.70;;;12.30;1.00;;;;;;6332030;22;20401;-81
2021/09/05 04:31:09;;;;;;;22.60;19.17;;;12.30;1.00;;;;;;6311820;22;20407;-82
2021/09/05 04:33:36;;;;;;;22.00;18.70;;;12.30;1.00;;;;;;6306699;22;20398;-81
2021/09/05 04:36:03;;;;;;;24.10;19.50;;;12.40;1.00;;;;;;6311976;22;21059;-81
2021/09/05 04:38:31;;;;;;;21.73;19.33;;;12.40;1.00;;;;;;6325494;22;20378;-81
2021/09/05 04:40:58;;;;;;;25.03;18.37;;;12.50;1.00;;;;;;6330620;22;20390;-81
2021/09/05 04:43:24;;;;;;;23.63;17.43;;;12.50;1.00;;;;;;6332461;22;20378;-81
2021/09/05 04:45:51;;;;;;;23.37;18.00;;;12.60;1.00;;;;;;6332684;22;20382;-81
2021/09/05 04:48:17;;;;;;;20.90;17.77;;;12.60;1.00;;;;;;6304225;22;20401;-80
2021/09/05 04:50:46;;;;;;;23.37;17.50;;;12.60;1.00;;;;;;6332667;22;20394;-81
2021/09/05 04:53:12;;;;;;;18.97;16.37;;;12.70;1.00;;;;;;6330113;22;20377;-80
2021/09/05 04:55:42;;;;;;;21.00;17.50;;;12.70;1.00;;;;;;6330063;22;21611;-81
2021/09/05 04:58:08;;;;;;;21.00;16.50;;;12.80;1.00;;;;;;6297198;22;20399;-80
2021/09/05 05:00:35;;;;;;;17.67;15.53;;;12.80;1.00;;;;;;6327604;22;20395;-82
2021/09/05 05:03:02;;;;;;;19.60;16.40;;;12.90;1.00;;;;;;6311439;22;20958;-79
2021/09/05 05:05:28;;;;;;;18.97;15.10;;;13.00;1.00;;;;;;6310677;22;20444;-80
2021/09/05 05:07:55;;;;;;;19.20;15.07;;;13.10;1.00;;;;;;6317907;22;20399;-81
2021/09/05 05:10:22;;;;;;;18.53;15.10;;;13.10;1.00;;;;;;6314560;22;20780;-81
2021/09/05 05:12:50;;;;;;;16.60;14.73;;;13.10;1.00;;;;;;6285982;22;21616;-81
2021/09/05 05:15:17;;;;;;;18.33;14.73;;;13.20;1.00;;;;;;6312604;22;21199;-80
2021/09/05 05:17:44;;;;;;;15.37;13.70;;;13.20;1.00;;;;;;6307341;22;20476;-80
2021/09/05 05:20:12;;;;;;;17.40;14.23;;;13.30;1.00;;;;;;6308352;22;20417;-81
2021/09/05 05:22:39;;;;;;;15.47;13.87;;;13.30;1.00;;;;;;6305431;22;20426;-81
2021/09/05 05:25:07;;;;;;;16.57;14.53;;;13.40;1.00;;;;;;6306688;22;20509;-81
2021/09/05 05:27:34;;;;;;;16.70;13.27;;;13.40;1.00;;;;;;6306733;22;20365;-82
2021/09/05 05:30:02;;;;;;;18.20;14.03;;;13.50;1.00;;;;;;6319343;22;20429;-81
2021/09/05 05:32:29;;;;;;;15.67;14.03;;;13.50;1.00;;;;;;6329818;22;20347;-81
2021/09/05 05:34:56;;;;;;;14.70;12.97;;;13.50;1.00;;;;;;6306890;22;20414;-82
2021/09/05 05:37:23;;;;;;;18.30;13.40;;;13.60;1.00;;;;;;6303006;22;20450;-78
2021/09/05 05:39:49;;;;;;;16.07;14.20;;;13.60;1.00;;;;;;6304872;22;20490;-81
2021/09/05 05:42:16;;;;;;;17.17;13.50;;;13.60;1.00;;;;;;6303401;22;20460;-80
2021/09/05 05:44:43;;;;;;;19.43;13.53;;;13.60;1.00;;;;;;6303447;22;20426;-80
2021/09/05 05:47:11;;;;;;;15.13;12.90;;;13.60;1.00;;;;;;6307110;22;21154;-80
2021/09/05 05:49:40;;;;;;;17.27;13.50;;;13.70;1.00;;;;;;6320960;22;20402;-79
2021/09/05 05:52:07;;;;;;;15.73;12.90;;;13.80;1.00;;;;;;6276176;22;20494;-81
2021/09/05 05:54:34;;;;;;;14.97;11.97;;;13.80;1.00;;;;;;6304655;22;21143;-80
2021/09/05 05:57:00;;;;;;;12.70;11.30;;;13.90;1.00;;;;;;6307896;22;20462;-79
2021/09/05 05:59:27;;;;;;;15.67;12.93;;;13.90;1.00;;;;;;6302022;22;20453;-78
2021/09/05 06:01:54;;;;;;;13.00;11.70;;;14.00;1.00;;;;;;6305061;22;20418;-80
2021/09/05 06:04:22;;;;;;;13.20;11.37;;;13.90;1.00;;;;;;6302429;22;20419;-79
2021/09/05 06:06:49;;;;;;;16.70;11.67;;;13.90;1.00;;;;;;6303926;22;20402;-80
2021/09/05 06:09:16;;;;;;;12.67;10.90;;;13.90;1.00;;;;;;6304607;22;20428;-80
2021/09/05 06:11:43;;;;;;;12.27;10.33;;;14.00;1.00;;;;;;6305830;22;20600;-81
2021/09/05 06:14:10;;;;;;;10.43;9.13;;;14.10;1.00;;;;;;6276435;22;20676;-82
2021/09/05 06:16:37;;;;;;;12.87;9.57;;;14.20;1.00;;;;;;6304839;22;20394;-82
2021/09/05 06:19:03;;;;;;;10.27;8.70;;;14.20;1.00;;;;;;6276696;22;21045;-81
2021/09/05 06:21:31;;;;;;;11.07;9.20;;;14.20;1.00;;;;;;6303931;22;20478;-80
2021/09/05 06:23:59;;;;;;;10.67;9.33;;;14.30;1.00;;;;;;6306036;22;20482;-81
2021/09/05 06:26:26;;;;;;;12.30;9.10;;;14.20;1.00;;;;;;6303240;22;20361;-82
2021/09/05 06:28:52;;;;;;;10.80;9.33;;;14.10;1.00;;;;;;6304011;22;20418;-83
2021/09/05 06:31:19;;;;;;;10.50;8.70;;;14.10;1.00;;;;;;6305064;22;21001;-81
2021/09/05 06:33:45;;;;;;;8.70;7.70;;;14.10;1.00;;;;;;6311401;22;20398;-82
2021/09/05 06:36:12;;;;;;;10.07;7.60;;;14.00;1.00;;;;;;6335712;22;20350;-82
2021/09/05 06:38:40;;;;;;;9.53;8.57;;;14.10;1.00;;;;;;6323906;22;20374;-81
2021/09/05 06:41:07;;;;;;;9.50;7.60;;;14.10;1.00;;;;;;6304457;22;20442;-82
2021/09/05 06:43:33;;;;;;;10.00;8.30;;;14.30;1.00;;;;;;6303153;22;20458;-80
2021/09/05 06:46:00;;;;;;;10.70;7.70;;;14.40;1.00;;;;;;6296423;22;20422;-82
2021/09/05 06:48:27;;;;;;;8.87;7.90;;;14.50;1.00;;;;;;6303800;22;20391;-82
2021/09/05 06:50:53;;;;;;;10.00;7.80;;;14.40;1.00;;;;;;6306850;22;20394;-83
2021/09/05 06:53:20;;;;;;;10.30;7.77;;;14.30;1.00;;;;;;6303173;22;20828;-82
2021/09/05 06:55:53;;;;;;;12.17;7.43;;;14.20;1.00;;;;;;6303114;22;20489;-86
2021/09/05 06:58:20;;;;;;;10.90;7.37;;;14.20;1.00;;;;;;6302339;22;20502;-82
2021/09/05 07:00:47;;;;;;;10.80;7.50;;;14.30;1.00;;;;;;6303445;22;20527;-81
2021/09/05 07:03:14;;;;;;;8.00;7.20;;;14.30;1.00;;;;;;6273145;22;20521;-82
2021/09/05 07:05:42;;;;;;;8.13;7.13;;;14.30;1.00;;;;;;6303258;22;20444;-81
2021/09/05 07:08:09;;;;;;;9.93;7.00;;;14.40;1.00;;;;;;6300670;22;20488;-82
2021/09/05 07:10:36;;;;;;;9.20;7.37;;;14.40;1.00;;;;;;6301027;22;20955;-81
2021/09/05 07:13:04;;;;;;;9.30;8.40;;;14.40;1.00;;;;;;6302459;22;20442;-81
2021/09/05 07:15:31;;;;;;;10.23;8.03;;;14.30;1.00;;;;;;6305959;22;20426;-82
2021/09/05 07:17:58;;;;;;;8.30;6.70;;;14.40;1.00;;;;;;6302431;22;21427;-81
2021/09/05 07:20:25;;;;;;;10.37;7.97;;;14.40;1.00;;;;;;6303009;22;20429;-79
2021/09/05 07:22:52;;;;;;;10.70;7.03;;;14.50;1.00;;;;;;6302055;22;20457;-81
2021/09/05 07:25:20;;;;;;;8.07;7.27;;;14.70;1.00;;;;;;6277343;22;20446;-79
2021/09/05 07:27:47;;;;;;;10.00;7.93;;;14.80;1.00;;;;;;6332863;22;20422;-81
2021/09/05 07:30:16;;;;;;;9.20;7.30;;;15.00;1.00;;;;;;6319098;22;20407;-81
2021/09/05 07:32:43;;;;;;;14.73;10.33;;;15.20;1.00;;;;;;6302370;22;20465;-83
2021/09/05 07:35:14;;;;;;;9.80;7.70;;;15.40;1.00;;;;;;6301267;22;20399;-81
2021/09/05 07:37:46;;;;;;;11.53;7.50;;;15.50;1.00;;;;;;6302076;22;20409;-82
2021/09/05 07:40:14;;;;;;;12.30;8.57;;;15.60;1.00;;;;;;6301645;22;20426;-83
2021/09/05 07:42:41;;;;;;;7.10;6.30;;;15.70;1.00;;;;;;6274211;22;20466;-82
2021/09/05 07:45:09;;;;;;;9.77;6.77;;;16.00;1.00;;;;;;6302283;22;20423;-80
2021/09/05 07:47:37;;;;;;;8.77;7.00;;;16.10;1.00;;;;;;6303117;22;20479;-81
2021/09/05 07:50:06;;;;;;;8.80;7.37;;;16.20;1.00;;;;;;6301759;22;20396;-82
2021/09/05 07:52:33;;;;;;;9.47;7.40;;;16.30;1.00;;;;;;6274526;22;20490;-82
2021/09/05 07:54:59;;;;;;;12.50;8.70;;;16.50;1.00;;;;;;6303599;22;20396;-82
2021/09/05 07:57:26;;;;;;;8.80;7.40;;;16.60;1.00;;;;;;6304045;22;20408;-82
2021/09/05 07:59:53;;;;;;;10.93;8.27;;;16.80;1.00;;;;;;6301519;22;20424;-81
2021/09/05 08:02:20;;;;;;;10.63;8.33;;;17.00;1.00;;;;;;6303399;22;22044;-82
2021/09/05 08:04:48;;;;;;;10.03;8.00;;;17.20;1.00;;;;;;6301841;22;20416;-81
2021/09/05 08:07:15;;;;;;;10.83;8.57;;;17.30;1.00;;;;;;6300401;22;20497;-82
2021/09/05 08:09:41;;;;;;;7.13;6.53;;;17.30;1.00;;;;;;6302620;22;21210;-83
2021/09/05 08:12:08;;;;;;;8.27;7.47;;;17.40;1.00;;;;;;6301290;22;20484;-81
2021/09/05 08:14:36;;;;;;;10.27;8.43;;;17.60;1.00;;;;;;6302404;22;20400;-81
2021/09/05 08:17:04;;;;;;;10.90;8.33;;;17.80;1.00;;;;;;6299979;22;21610;-83
2021/09/05 08:19:33;;;;;;;10.00;8.90;;;17.90;1.00;;;;;;6292021;22;20474;-83
2021/09/05 08:22:01;;;;;;;9.50;8.43;;;17.80;1.00;;;;;;6277771;22;20433;-83
2021/09/05 08:24:29;;;;;;;11.73;8.87;;;17.80;1.00;;;;;;6315278;22;20385;-83
2021/09/05 08:26:56;;;;;;;10.93;8.77;;;17.90;1.00;;;;;;6275599;22;20405;-83
2021/09/05 08:29:23;;;;;;;9.60;8.70;;;18.00;1.00;;;;;;6302397;22;22341;-82
2021/09/05 08:31:50;;;;;;;11.40;10.00;;;18.10;1.00;;;;;;6301466;22;20398;-79
2021/09/05 08:34:16;;;;;;;10.20;8.50;;;18.20;1.00;;;;;;6299003;22;21250;-80
2021/09/05 08:36:44;;;;;;;10.77;9.30;;;18.20;1.00;;;;;;6302517;22;20414;-79
2021/09/05 08:39:12;;;;;;;9.53;7.93;;;18.40;1.00;;;;;;6298026;22;20947;-81
2021/09/05 08:41:40;;;;;;;11.00;9.07;;;18.60;1.00;;;;;;6298944;22;20425;-80
2021/09/05 08:44:06;;;;;;;11.63;9.40;;;18.80;1.00;;;;;;6301769;22;20421;-78
2021/09/05 08:46:38;;;;;;;9.63;7.83;;;18.90;1.00;;;;;;6298822;22;21379;-78
2021/09/05 08:49:04;;;;;;;11.67;9.67;;;19.20;1.00;;;;;;6303153;22;20366;-79
2021/09/05 08:51:32;;;;;;;11.70;8.97;;;19.40;1.00;;;;;;6311684;22;20658;-77
2021/09/05 08:53:59;;;;;;;9.60;8.70;;;19.40;1.00;;;;;;6323145;22;20473;-77
2021/09/05 08:56:27;;;;;;;11.50;9.33;;;19.40;1.00;;;;;;6328405;22;20403;-78
2021/09/05 08:58:54;;;;;;;13.23;9.80;;;19.40;1.00;;;;;;6298794;22;20473;-81
2021/09/05 09:01:27;;;;;;;13.00;10.03;;;19.60;1.00;;;;;;6310906;22;20675;-76
2021/09/05 09:04:05;;;;;;;12.73;10.83;;;19.90;1.00;;;;;;6301387;22;20426;-78
2021/09/05 09:06:37;;;;;;;10.50;9.47;;;20.00;1.00;;;;;;6296400;22;20447;-77
2021/09/05 09:09:05;;;;;;;11.07;9.40;;;20.10;1.00;;;;;;6294988;22;20387;-80
2021/09/05 09:14:46;;;;;;;10.10;8.70;;;20.10;1.00;;;;;;5018465;27;3606111;-79
2021/09/05 09:17:18;;;;;;;9.80;8.80;;;20.20;1.00;;;;;;5129191;27;20272;-82
2021/09/05 09:19:48;;;;;;;10.33;8.47;;;20.40;1.00;;;;;;5128247;27;20430;-82
2021/09/05 09:22:33;;;;;;;19.30;9.63;;;20.40;1.00;;;;;;5105675;27;20450;-83
2021/09/05 09:25:04;;;;;;;9.97;8.97;;;20.40;1.00;;;;;;5121712;27;20426;-80
2021/09/05 09:27:34;;;;;;;10.93;9.43;;;20.60;1.00;;;;;;5105009;27;20464;-80
2021/09/05 09:30:16;;;;;;;16.73;9.17;;;21.00;1.00;;;;;;5096744;27;20450;-79
2021/09/05 09:32:50;;;;;;;9.10;7.90;;;21.50;1.00;;;;;;5099829;27;20468;-82
2021/09/05 09:35:17;;;;;;;9.10;8.20;;;22.10;1.00;;;;;;5104779;27;20530;-82
2021/09/05 09:37:48;;;;;;;11.07;9.93;;;22.50;1.00;;;;;;5100576;27;20459;-82
2021/09/05 09:40:24;;;;;;;19.70;10.10;;;22.50;1.00;;;;;;5108041;27;20450;-81
2021/09/05 09:42:52;;;;;;;12.20;9.10;;;22.60;1.00;;;;;;5130869;27;20449;-82
2021/09/05 09:45:29;;;;;;;9.97;8.97;;;22.60;1.00;;;;;;5105855;27;20959;-82
2021/09/05 09:48:01;;;;;;;10.90;9.80;;;22.80;1.00;;;;;;5106429;27;21744;-82
2021/09/05 09:50:28;;;;;;;12.93;10.67;;;23.10;1.00;;;;;;5107817;27;20442;-83
2021/09/05 09:52:56;;;;;;;13.83;10.90;;;23.80;1.00;;;;;;5109249;27;20486;-82
2021/09/05 09:55:35;;;;;;;10.73;9.40;;;24.50;1.00;;;;;;5110654;27;20435;-83
2021/09/05 09:58:02;;;;;;;10.57;9.47;;;25.10;1.00;;;;;;5111074;27;20445;-84
2021/09/05 10:00:31;;;;;;;10.67;9.63;;;26.10;1.00;;;;;;5130848;27;20476;-78
2021/09/05 10:03:00;;;;;;;15.93;10.70;;;26.90;1.00;;;;;;5120406;27;21049;-76
2021/09/05 10:05:27;;;;;;;14.50;9.93;;;27.10;1.00;;;;;;5118197;27;20451;-79
2021/09/05 10:07:56;;;;;;;10.80;9.40;;;27.30;1.00;;;;;;5100828;27;20603;-78
2021/09/05 10:10:25;;;;;;;10.43;9.43;;;27.10;1.00;;;;;;5107173;27;20524;-79
2021/09/05 10:12:56;;;;;;;10.00;9.00;;;27.00;1.00;;;;;;5102860;27;20455;-76
2021/09/05 10:15:23;;;;;;;10.20;9.13;;;26.50;1.00;;;;;;5103272;27;20455;-79
2021/09/05 10:17:51;;;;;;;10.70;9.60;;;26.70;1.00;;;;;;5098983;27;20432;-77
2021/09/05 10:20:19;;;;;;;10.67;9.67;;;27.30;1.00;;;;;;5118540;27;20466;-78
2021/09/05 10:22:49;;;;;;;10.23;9.03;;;27.90;1.00;;;;;;5101353;27;20439;-78
2021/09/05 10:25:18;;;;;;;9.30;8.30;;;28.20;1.00;;;;;;5094917;27;20515;-78
2021/09/05 10:27:48;;;;;;;10.03;9.00;;;27.70;1.00;;;;;;5085614;28;20523;-77
2021/09/05 10:30:20;;;;;;;10.60;9.50;;;27.30;1.00;;;;;;5082843;27;21194;-80
2021/09/05 10:32:51;;;;;;;10.77;9.30;;;27.30;1.00;;;;;;5085438;27;20481;-79
2021/09/05 10:35:35;;;;;;;12.50;9.73;;;27.20;1.00;;;;;;5087673;27;20491;-84
2021/09/05 10:38:36;;;;;;;10.83;9.73;;;26.80;1.00;;;;;;5109258;27;20502;-84
2021/09/05 10:50:41;;;;;;;8.23;7.43;;;27.80;1.00;;;;;;5067981;28;20458;-81
2021/09/05 10:53:16;;;;;;;9.40;8.13;;;28.60;1.00;;;;;;5069592;28;20555;-83
2021/09/05 10:56:05;;;;;;;7.90;7.20;;;29.50;1.00;;;;;;5060682;28;20459;-81
2021/09/05 10:58:37;;;;;;;9.57;8.53;;;29.50;1.00;;;;;;5057780;28;21000;-82
2021/09/05 11:01:05;;;;;;;10.33;8.53;;;29.00;1.00;;;;;;5072831;28;20500;-82
2021/09/05 11:03:34;;;;;;;10.80;8.37;;;29.50;1.00;;;;;;5061144;28;20465;-80
2021/09/05 11:06:38;;;;;;;8.90;8.03;;;30.10;1.00;;;;;;5056480;28;20979;-80
2021/09/05 11:09:42;;;;;;;8.70;7.83;;;30.10;1.00;;;;;;5056729;28;20451;-81
2021/09/05 11:12:11;;;;;;;9.80;8.80;;;30.40;1.00;;;;;;5058520;28;21720;-81
2021/09/05 11:14:55;;;;;;;10.20;9.20;;;30.10;1.00;;;;;;5063420;28;21046;-82
2021/09/05 11:17:24;;;;;;;10.33;8.50;;;29.10;1.00;;;;;;5057178;28;20473;-81
2021/09/05 11:19:52;;;;;;;10.53;9.20;;;28.10;1.00;;;;;;5058633;28;20506;-81
2021/09/05 11:22:22;;;;;;;10.70;8.90;;;27.30;1.00;;;;;;5058828;28;20443;-82
2021/09/05 11:25:06;;;;;;;9.43;8.53;;;26.70;1.00;;;;;;5062909;28;20501;-79
2021/09/05 11:27:32;;;;;;;11.93;9.47;;;26.20;1.00;;;;;;5056841;28;20456;-80
2021/09/05 11:30:00;;;;;;;9.33;8.53;;;26.50;1.00;;;;;;5064940;28;20485;-81
2021/09/05 11:32:28;;;;;;;10.07;9.07;;;27.00;1.00;;;;;;5062915;28;20568;-80
2021/09/05 11:34:56;;;;;;;11.20;9.00;;;27.30;1.00;;;;;;5059559;28;20918;-81
2021/09/05 11:37:29;;;;;;;10.20;9.20;;;27.10;1.00;;;;;;5077574;28;20402;-78
2021/09/05 11:39:57;;;;;;;11.27;9.13;;;27.00;1.00;;;;;;5079070;28;20600;-78
2021/09/05 11:42:24;;;;;;;9.93;8.93;;;26.90;1.00;;;;;;5068159;28;20532;-80
2021/09/05 11:45:01;;;;;;;10.43;9.43;;;26.50;1.00;;;;;;5058942;28;20441;-79
2021/09/05 11:47:28;;;;;;;10.10;9.10;;;25.90;1.00;;;;;;5055636;28;20412;-78
2021/09/05 11:49:57;;;;;;;10.23;9.23;;;25.90;1.00;;;;;;5053619;28;20445;-77
2021/09/05 11:52:26;;;;;;;12.10;10.23;;;27.20;1.00;;;;;;5048526;28;21640;-78
2021/09/05 11:55:01;;;;;;;10.00;9.10;;;27.90;1.00;;;;;;5051344;28;20423;-77
2021/09/05 11:57:28;;;;;;;11.43;10.20;;;27.80;1.00;;;;;;5060663;28;20422;-77
2021/09/05 11:59:58;;;;;;;9.90;8.60;;;29.00;1.00;;;;;;5061302;28;20438;-77
2021/09/05 12:02:29;;;;;;;10.17;9.17;;;30.10;1.00;;;;;;5049524;28;20749;-78
2021/09/05 12:04:56;;;;;;;9.50;8.50;;;30.30;1.00;;;;;;5060434;28;20489;-76
2021/09/05 12:07:24;;;;;;;10.50;8.83;;;30.80;1.00;;;;;;5072218;28;20435;-76
2021/09/05 12:10:06;;;;;;;10.53;9.53;;;32.00;1.00;;;;;;5072964;28;20524;-76
2021/09/05 12:12:32;;;;;;;10.47;9.47;;;33.10;1.00;;;;;;5079398;28;20404;-75
2021/09/05 12:15:11;;;;;;;9.60;8.60;;;33.70;1.00;;;;;;5068669;28;20447;-76
2021/09/05 12:17:38;;;;;;;9.63;8.73;;;34.00;1.00;;;;;;5056945;28;20463;-77
2021/09/05 12:20:09;;;;;;;9.77;8.80;;;34.40;1.00;;;;;;5054400;28;22256;-76
2021/09/05 12:22:44;;;;;;;10.60;9.60;;;34.80;1.00;;;;;;5057022;28;20447;-77
2021/09/05 12:25:18;;;;;;;12.17;9.70;;;34.80;1.00;;;;;;5055031;28;21181;-77
2021/09/05 12:27:56;;;;;;;12.80;9.27;;;34.60;1.00;;;;;;5053646;28;20455;-76
2021/09/05 12:30:25;;;;;;;10.53;9.63;;;34.60;1.00;;;;;;5053930;28;20465;-77
2021/09/05 12:33:13;;;;;;;10.23;9.23;;;34.60;1.00;;;;;;5054920;28;20547;-79
2021/09/05 12:35:41;;;;;;;10.33;9.37;;;35.10;1.00;;;;;;5053253;28;20535;-77
2021/09/05 12:38:10;;;;;;;11.03;9.93;;;34.90;1.00;;;;;;5054577;28;20605;-77
2021/09/05 12:40:41;;;;;;;13.90;12.30;;;35.10;1.00;;;;;;5056154;28;20487;-78
2021/09/05 12:43:09;;;;;;;12.90;10.50;;;35.20;1.00;;;;;;5052692;28;20530;-76
2021/09/05 12:45:37;;;;;;;10.23;9.23;;;35.80;1.00;;;;;;5064342;28;20442;-76
2021/09/05 12:48:18;;;;;;;10.93;9.83;;;36.20;1.00;;;;;;5070786;28;20459;-78
2021/09/05 12:50:45;;;;;;;11.13;10.23;;;36.90;1.00;;;;;;5052548;28;20462;-76
2021/09/05 12:53:16;;;;;;;11.80;10.70;;;36.90;1.00;;;;;;5053845;28;20649;-77
2021/09/05 12:55:45;;;;;;;11.20;10.20;;;36.70;1.00;;;;;;5053287;28;20591;-79
2021/09/05 12:58:12;;;;;;;11.20;10.20;;;35.80;1.00;;;;;;5054591;28;20969;-76
2021/09/05 13:00:39;;;;;;;11.03;9.93;;;35.60;1.00;;;;;;5053999;28;20542;-77
2021/09/05 13:03:07;;;;;;;16.33;14.83;;;34.90;1.00;;;;;;5054855;28;20549;-76